Terminal Aerodrome Forecast
Issued by NWS

Home | Current Version | Previous Version | Text Only | Print | Product List | Glossary On
Versions: 1 2 3 4 5 6 7 8 9 10 11 12 13
000
FTUS46 KMFR 201149
TAFRBG
TAF
KRBG 201149Z 2012/2112 VRB06KT P6SM -RA SCT020 OVC040
      TEMPO 2013/2015 5SM SHRA BR BKN020 OVC040
     FM202300 25005KT P6SM -SHRA VCTS FEW025 BKN035CB OVC060
     FM210300 VRB03KT P6SM VCSH FEW020 BKN060
     FM210600 00000KT P6SM SCT015 OVC025=

USA.gov is the U.S. government's official web portal to all federal, state and local government web resources and services.